Tiempo atmosférico en la estación meteorológica de Jaén, Jaén (582 m.)



Fecha
DESCASC
Temp. máxima en grados centígrados (hora)
DESCASC
Temp. mínima en grados centígrados (hora)
DESCASC
Temp. media en grados centígrados
DESCASC
Racha de viento máxima en m/sg (hora)
DESCASC
Velocidad máxima media en intervalos de 10 minutos(hora)
DESCASC
Precipitaciones diarias en mm
DESCASC
Precipitaciones de 00:00 a 06:00 en mm
DESCASC
Precipitaciones de 06:00 a 12:00 en mm
DESCASC
Precipitaciones de 12:00 a 18:00 en mm
DESCASC
Precipitaciones de 18:00 a 24:00 en mm
DESCASC
22-11-2020 16.3 (14:00) 9.6 (23:40) 12.9 10 (01:10) 6.11 (06:10) 0 0 0 0 0
21-11-2020 19.4 (14:20) 8.3 (07:10) 13.8 7.78 (23:30) 5.28 (23:20) 0 0 0 0 0
20-11-2020 20.6 (12:30) 11.1 (06:30) 15.9 6.94 (01:30) 4.72 (00:30) 0 0 0 0 0
19-11-2020 22.4 (15:10) 12.6 (00:00) 17.5 4.72 (18:30) 3.89 (18:30) 0 0 0 0 0
18-11-2020 22.5 (15:10) 11.3 (00:00) 16.9 3.06 (13:30) 2.22 (00:10) 0 0 0 0 0
17-11-2020 20.8 (14:30) 12.7 (00:00) 16.7 4.72 (06:20) 3.89 (06:20) 0 0 0 0 0
16-11-2020 20.5 (14:30) 13.5 (00:00) 17 8.06 (00:30) 3.33 (15:20) 0 0 0 0 0
15-11-2020 21 (15:10) 12.8 (00:00) 16.9 6.11 (04:50) 4.44 (04:50) 0 0 0 0 0
14-11-2020 15.6 (02:10) 13 (00:00) 14.3 5.28 (19:20) 2.78 (04:40) 1.2 0.2 0 0.8 0.2
13-11-2020 19.1 (14:40) 10.1 (00:00) 14.6 3.33 (15:30) 2.5 (19:20) 0 0 0 0 0
12-11-2020 18 (16:00) 12.8 (00:00) 15.4 7.78 (03:40) 5.28 (08:20) 0 0 0 0 0
11-11-2020 20.4 (14:10) 12.9 (00:00) 16.6 10 (10:10) 5.28 (10:00) 0 0 0 0 0
10-11-2020 18.2 (14:20) 9.8 (00:00) 14 5 (23:50) 3.61 (23:30) 0 0 0 0 0
09-11-2020 17.1 (15:30) 10.4 (00:00) 13.8 4.17 (16:20) 2.78 (16:20) 0 0 0 0 0
08-11-2020 18.9 (14:20) 9.9 (00:00) 14.4 6.67 (06:40) 4.17 (06:40) 0 0 0 0 0
07-11-2020 18 (13:40) 11.7 (00:00) 14.8 21.67 (07:50) 6.67 (00:40) 14.4 8.2 6.2 0 0
06-11-2020 25.1 (13:30) 13.9 (00:00) 19.5 14.44 (12:00) 7.5 (12:00) 3.4 0 0 0 3.4
05-11-2020 20.1 (15:00) 12.5 (00:00) 16.3 15 (01:50) 8.61 (01:50) 5 5 0 0 0
04-11-2020 15.9 (23:59) 12.1 (00:00) 14 11.94 (23:59) 6.39 (22:10) 5.4 0 5.2 0.2 0
03-11-2020 23.9 (14:30) 13 (00:00) 18.4 6.11 (16:00) 3.61 (18:50) 0 0 0 0 0
02-11-2020 25.8 (15:00) 14.1 (00:00) 19.9 4.44 (15:50) 3.06 (18:20) 0 0 0 0 0
01-11-2020 24.8 (15:00) 12.7 (00:00) 18.7 3.61 (14:10) 2.5 (19:00) 0 0 0 0 0
31-10-2020 25 (14:30) 14.4 (00:00) 19.7 3.89 (18:10) 3.33 (18:10) 0 0 0 0 0
30-10-2020 25.7 (15:30) 15.3 (00:00) 20.5 7.22 (07:00) 4.17 (07:00) 0 0 0 0 0
29-10-2020 24.5 (15:30) 11.3 (00:00) 17.9 3.89 (03:30) 2.5 (20:40) 0 0 0 0 0
28-10-2020 19.3 (14:20) 8.1 (00:00) 13.7 5.28 (09:50) 3.61 (09:50) 0 0 0 0 0

Gráficas

Temp. máximas Temp. mínimas Temp. medias Precipitaciones Rachas de viento máximas Velocidades máximas media en intervalos de 10 minutos

Datos horarios

Fecha y hora oficial Temperatura (ºC) Velocidad del viento (km/h) Dirección del viento Racha (km/h) Dirección de racha Precipitación (mm) Presión (hPa) Tendencia (hPa) Humedad (%)
2020-11-26 23:00:00 8.6 4 Sudeste 13 Sur 3.6 942.2 -0.1 94
2020-11-26 22:00:00 8.4 8 Sur 10 Sur 0 942.4 0.2 94
2020-11-26 21:00:00 8.4 8 Sur 11 Sur 0.2 942.3 0.5 93
2020-11-26 20:00:00 8.4 4 Sudeste 11 Sudeste 0 942.3 0.8 94
2020-11-26 19:00:00 8.4 4 Este 10 Este 0 942.2 1.2 96
2020-11-26 18:00:00 9.2 0 Calma 8 Noroeste 0 941.8 0.5 91
2020-11-26 17:00:00 9.7 4 Noroeste 16 Sur 0 941.5 0.1 89
2020-11-26 16:00:00 9.8 10 Sur 19 Este 0 941 -0.9 87
2020-11-26 15:00:00 10 10 Sudeste 23 Sudoeste 0.2 941.3 -0.8 79
2020-11-26 14:00:00 9.7 11 Sudoeste 30 Sur 1.4 941.4 -0.8 78
2020-11-26 13:00:00 10.1 5 Noroeste 14 Este 1.8 941.9 -- 98
2020-11-26 12:00:00 10.6 2 Nordeste 9 Sur 0.8 942.1 -- 95
2020-11-26 11:00:00 10.4 7 Sudeste 19 Sudeste 2.2 942.2 -- 91
2020-11-26 10:00:00 10.5 3 Oeste 35 Sudeste 1.4 941.7 -- 89
2020-11-26 09:00:00 10.5 13 Sudeste 32 Sudeste 0.2 941.3 -- 83
2020-11-26 08:00:00 9.2 4 Este 9 Sudeste 0 941.6 -- 98
2020-11-26 07:00:00 9.7 3 Este 15 Sudoeste 0.6 942 -- 95
2020-11-26 06:00:00 10.1 7 Sudoeste 27 Oeste 1 942.2 -- 93
2020-11-26 05:00:00 10.4 8 Oeste 13 Oeste 0 942.4 -- 89
2020-11-26 04:00:00 11.3 10 Sur 19 Sudeste 0 941.9 -- 79
2020-11-26 03:00:00 8.8 5 Sur 14 Sur 0 942 -- 98
2020-11-26 02:00:00 8.8 2 Noroeste 5 Noroeste 0 942.5 -- 97
2020-11-26 01:00:00 9.2 3 Noroeste 10 Noroeste 0 943.6 -- 96
2020-11-26 00:00:00 9.7 4 Sur 12 Sudeste 0 944 -- 94
2020-11-25 23:00:00 9.5 8 Sur 17 Sudeste 0 944.3 -- 93
2020-11-25 22:00:00 9.7 5 Sudeste 17 Sudeste 0 945.2 -- 97
2020-11-25 21:00:00 9.9 11 Sudeste 22 Sudeste 2.6 945.6 -- 97
2020-11-25 20:00:00 10.2 5 Sudoeste 12 Oeste 0.2 945.7 -- 92
2020-11-25 19:00:00 10.9 5 Sur 15 Sudeste 0.8 945.5 -- 90
2020-11-25 18:00:00 11.7 9 Sudeste 19 Sudeste 0 945.5 -- 79
2020-11-25 17:00:00 12.8 13 Sur 48 Oeste 0 945.8 -- 70
2020-11-25 16:00:00 12.7 23 Oeste 52 Noroeste 0 945.8 -- 71
2020-11-25 15:00:00 16.8 7 Sudeste 15 Sudeste 0 945.4 -- 48
2020-11-25 14:00:00 16.2 5 Norte 12 Norte 0 946.4 -- 53
2020-11-25 13:00:00 16.3 6 Norte -- -- -- 947.8 -- 53
2020-11-25 12:00:00 13.8 3 Nordeste 11 Nordeste 0 948.8 -- 64
2020-11-25 11:00:00 12.6 3 Oeste 10 Norte 0 949.3 -- 68
2020-11-25 10:00:00 13.7 7 Sudeste 17 Sur 0 949.4 -- 61
2020-11-25 09:00:00 12.1 8 Sur 13 Sur 0 949.7 -- 67
2020-11-25 08:00:00 11.2 3 Sudoeste 10 Oeste 0 950 -- 70
2020-11-25 07:00:00 12.5 6 Oeste 22 Sudoeste 0 950.1 -- 65
2020-11-25 06:00:00 13 8 Sudoeste 23 Oeste 0 950.1 -- 64
2020-11-25 05:00:00 13.1 12 Sudoeste 26 Oeste 0 950.4 -- 64
2020-11-25 04:00:00 12.7 6 Sudoeste 18 Oeste 0 950.9 -- 69
2020-11-25 03:00:00 11.3 3 Este 20 Noroeste 0 951.1 -- 64
2020-11-25 02:00:00 11.6 9 Noroeste 14 Noroeste 0 951.3 -- 65
2020-11-25 01:00:00 12.3 3 Este 12 Este 0 951.6 -- 62
2020-11-25 00:00:00 11.9 2 Sudoeste 25 Sudeste 0 952 -- 63
2020-11-24 23:00:00 11.6 16 Sudeste 24 Sur 0 952.5 -- 57
2020-11-24 22:00:00 10.3 12 Sur 14 Sur 0 953.2 -- 64
2020-11-24 21:00:00 10.1 8 Sudoeste 10 Sudoeste 0 953.6 -- 68
2020-11-24 20:00:00 10.2 8 Sudoeste 10 Sudoeste 0 953.7 -- 65
2020-11-24 19:00:00 10.5 8 Sudoeste 12 Oeste 0 953.8 -- 62
2020-11-24 18:00:00 11.1 9 Sudoeste 11 Sudoeste 0 953.5 -- 59
2020-11-24 17:00:00 13.2 2 Sur 8 Norte 0 953.5 -- 51
2020-11-24 16:00:00 15.1 3 Nordeste 12 Norte 0 953.7 -- 43
2020-11-24 15:00:00 15.8 5 Norte 14 Norte 0 954.2 -- 40
2020-11-24 14:00:00 15 4 Norte 8 Norte 0 955 -- 43
2020-11-24 13:00:00 14.1 4 Nordeste 9 Norte 0 955.8 -- 46
2020-11-24 12:00:00 13.4 3 Nordeste 6 Norte 0 956.7 -- 48
2020-11-24 11:00:00 11.3 3 Norte 4 Noroeste 0 956.9 -- 52
2020-11-24 10:00:00 10.8 2 Este 5 Sudeste 0 956.7 -- 50
2020-11-24 09:00:00 7.9 0 Calma 6 Oeste 0 956.5 -- 56
2020-11-24 08:00:00 6.9 2 Este 8 Oeste 0 956 -- 49
2020-11-24 07:00:00 6.6 3 Sudoeste 6 Sudoeste 0 955.9 -- 59
2020-11-24 06:00:00 6.6 0 Calma 6 Sur 0 956 -- 60
2020-11-24 05:00:00 6.9 0 Calma 8 Oeste 0 956.1 -- 57
2020-11-24 04:00:00 7.2 2 Oeste 7 Sur 0 956.2 -- 58
2020-11-24 03:00:00 7.1 4 Sur 6 Sur 0 956.6 -- 64
2020-11-24 02:00:00 7.5 3 Sur 5 Sur 0 957 -- 63
2020-11-24 01:00:00 8 4 Oeste 8 Oeste 0 957.5 -- 59
2020-11-24 00:00:00 8.1 5 Sudoeste 5 Sudoeste 0 957.7 -- 59
2020-11-23 23:00:00 8.5 2 Sudoeste 7 Sudoeste 0 958.1 -- 57
2020-11-23 22:00:00 8.8 5 Sudoeste 6 Sudoeste 0 958.2 -- 56
2020-11-23 21:00:00 9.9 3 Sur 5 Oeste 0 958.1 -- 53
2020-11-23 20:00:00 10 3 Sudoeste 7 Oeste 0 958 -- 59
2020-11-23 19:00:00 10.9 3 Sudoeste 10 Sur 0 958 -- 58
2020-11-23 18:00:00 11.4 4 Sudoeste 6 Sur 0 957.8 -- 57
2020-11-23 17:00:00 13.8 4 Sudoeste 13 Norte 0 957.6 -- 47
2020-11-23 16:00:00 15.7 7 Noroeste 15 Norte 0 957.6 -- 43
2020-11-23 15:00:00 16.3 9 Noroeste 15 Noroeste 0 957.7 -- 41
2020-11-23 14:00:00 16 3 Nordeste 7 Nordeste 0 958.1 -- 46
2020-11-23 13:00:00 14.3 6 Norte 9 Norte 0 958.7 -- 48
2020-11-23 12:00:00 13.2 4 Nordeste 9 Nordeste 0 959.2 -- 55
2020-11-23 11:00:00 12.3 3 Norte 8 Nordeste 0 959.2 -- 55
2020-11-23 10:00:00 11.3 2 Oeste 5 Oeste 0 959.1 -- 50
2020-11-23 09:00:00 7 3 Oeste 5 Oeste 0 958.8 -- 62
2020-11-23 08:00:00 5 3 Sudeste 8 Sudoeste 0 958.5 -- 74
2020-11-23 07:00:00 5.7 3 Sudeste 6 Oeste 0 958 -- 68
2020-11-23 06:00:00 6.9 4 Oeste 5 Oeste 0 958 -- 59
2020-11-23 05:00:00 7.5 3 Sudeste 5 Sudeste 0 958.1 -- 57
2020-11-23 04:00:00 8 0 Calma 8 Sudeste 0 958.4 -- 56
2020-11-23 03:00:00 8.5 3 Sudoeste 10 Oeste 0 958.4 -- 52
2020-11-23 02:00:00 8.9 5 Sudoeste 9 Sur 0 958.6 -- 58
2020-11-23 01:00:00 11.3 8 Sur 16 Sur 0 958.7 -- 48
2020-11-23 00:00:00 10.4 8 Sur 11 Sur 0 958.9 -- 55
2020-11-22 23:00:00 10.2 5 Sudoeste 11 Sur 0 958.9 -- 57
2020-11-22 22:00:00 12.5 9 Sur 15 Sur 0 958.6 -- 53
2020-11-22 21:00:00 12.6 12 Sur 19 Sur 0 958.5 -- 52
2020-11-22 20:00:00 12.4 13 Sur 19 Sur 0 958.3 -- 53
2020-11-22 19:00:00 10.5 6 Sur 8 Sur 0 958.5 -- 62
2020-11-22 18:00:00 11.1 5 Sudoeste 8 Sudoeste 0 958.4 -- 62
2020-11-22 17:00:00 13.5 3 Sudoeste 9 Noroeste 0 958.2 -- 53
2020-11-22 16:00:00 15.4 6 Noroeste 13 Noroeste 0 957.9 -- 45
2020-11-22 15:00:00 16 6 Norte 12 Norte 0 958.3 -- 42
2020-11-22 14:00:00 16.3 4 Norte 10 Sudeste 0 958.8 -- 43
2020-11-22 13:00:00 15.1 4 Nordeste 8 Nordeste 0 959.7 -- 48
2020-11-22 12:00:00 13.8 4 Nordeste 8 Norte 0 960.3 -- 57
2020-11-22 11:00:00 13.1 4 Nordeste 8 Nordeste 0 960.4 -- 60
2020-11-22 10:00:00 12.5 4 Sudeste 33 Sur 0 960.2 -- 59
2020-11-22 09:00:00 12.1 19 Sur 31 Sur 0 959.5 -- 51
2020-11-22 08:00:00 10 19 Sur 28 Sur 0 959.4 -- 63
2020-11-22 07:00:00 10.9 20 Sur 29 Sur 0 959 -- 62
2020-11-22 06:00:00 10.9 19 Sur 29 Sur 0 958.9 -- 63
2020-11-22 05:00:00 10.5 17 Sur 30 Sur 0 958.8 -- 64
2020-11-22 04:00:00 11.4 20 Sudeste 32 Sudeste 0 958.8 -- 60
2020-11-22 03:00:00 12 14 Sudeste 33 Sudeste 0 958.8 -- 58
2020-11-22 02:00:00 12.5 15 Sur 36 Sur 0 958.8 -- 57
2020-11-22 01:00:00 12.9 18 Sudeste 30 Sur 0 958.9 -- 56
2020-11-22 00:00:00 13.3 19 Sudeste 28 Sudeste 0 959 -- 56
2020-11-21 23:00:00 13.7 14 Sudeste 27 Sudeste 0 958.9 -- 55
2020-11-21 22:00:00 13.9 11 Sur 26 Sudeste 0 959 -- 59
2020-11-21 21:00:00 13.9 12 Sur 21 Sur 0 958.6 -- 59
2020-11-21 20:00:00 12.9 7 Sur 9 Sur 0 958.4 -- 62
2020-11-21 19:00:00 12.5 3 Sudoeste 6 Sudoeste 0 958.3 -- 65
2020-11-21 18:00:00 13.6 5 Sudoeste 7 Sudoeste 0 957.7 -- 62
2020-11-21 17:00:00 15.7 3 Sur 8 Norte 0 957.5 -- 55
2020-11-21 16:00:00 17.5 5 Norte 13 Norte 0 957 -- 46
2020-11-21 15:00:00 18.7 5 Norte 17 Norte 0 957.2 -- 46
2020-11-21 14:00:00 19 6 Este 17 Sudeste 0 957.4 -- 46
2020-11-21 13:00:00 18.3 6 Este 14 Sudeste 0 958.1 -- 50
2020-11-21 12:00:00 17 6 Este 15 Sudeste 0 958.8 -- 53
2020-11-21 11:00:00 14.7 5 Noroeste 10 Este 0 958.5 -- 60
2020-11-21 10:00:00 12.9 5 Norte 17 Sur 0 958.4 -- 62
2020-11-21 09:00:00 13.4 2 Noroeste 18 Sur 0 957.8 -- 54
2020-11-21 08:00:00 10.2 7 Sur 10 Sur 0 957.6 -- 69
2020-11-21 07:00:00 8.4 3 Sur 5 Sudeste 0 957.2 -- 71
2020-11-21 06:00:00 8.7 5 Oeste 8 Oeste 0 956.7 -- 66
2020-11-21 05:00:00 9.1 2 Noroeste 8 Oeste 0 956.7 -- 64
2020-11-21 04:00:00 10.7 5 Sudoeste 10 Sur 0 956.5 -- 58
2020-11-21 03:00:00 11.3 5 Sur 10 Sur 0 956.6 -- 55
2020-11-21 02:00:00 11 3 Sur 6 Sur 0 956.9 -- 54
2020-11-21 01:00:00 12.5 5 Sur 10 Sur 0 957.5 -- 47
2020-11-21 00:00:00 13.6 6 Sudeste 14 Sur 0 957.6 -- 44
2020-11-20 23:00:00 13.4 7 Sur 12 Sur 0 957.7 -- 43
2020-11-20 22:00:00 12.2 6 Sur 9 Sur 0 957.7 -- 44
2020-11-20 21:00:00 12.4 3 Sudoeste 9 Sur 0 957.4 -- 44
2020-11-20 20:00:00 14.3 3 Sur 12 Este 0 957.5 -- 37
2020-11-20 19:00:00 14.6 3 Sudeste 9 Sudoeste 0 957.9 -- 41
2020-11-20 18:00:00 15 4 Sudoeste 8 Sudoeste 0 957.3 -- 39
2020-11-20 17:00:00 17.3 4 Oeste 6 Noroeste 0 957.5 -- 31
2020-11-20 16:00:00 19.7 3 Sur 8 Noroeste 0 957.5 -- 24
2020-11-20 15:00:00 20.1 4 Este 12 Nordeste 0 958 -- 27
2020-11-20 14:00:00 20.1 6 Norte 14 Norte 0 958.9 -- 39
2020-11-20 13:00:00 19.8 5 Nordeste 14 Sudeste 0 959.4 -- 47
2020-11-20 12:00:00 19.6 9 Sudeste 17 Sudeste 0 959.8 -- 42
2020-11-20 11:00:00 18.2 8 Sudeste 14 Sudeste 0 960.3 -- 36
2020-11-20 10:00:00 17.3 6 Sudeste 18 Sudeste 0 960.2 -- 54
2020-11-20 09:00:00 14.9 6 Sur 12 Sur 0 960 -- 59
2020-11-20 08:00:00 12.1 8 Oeste 18 Sur 0 959.5 -- 66
2020-11-20 07:00:00 11.8 5 Sur 14 Sudoeste 0 959.6 -- 69
2020-11-20 06:00:00 12.2 7 Noroeste 13 Noroeste 0 960.1 -- 68
2020-11-20 05:00:00 13.5 8 Oeste 14 Noroeste 0 959.6 -- 62
2020-11-20 04:00:00 15.3 3 Noroeste 17 Sur 0 959.7 -- 55
2020-11-20 03:00:00 13.1 4 Noroeste 9 Noroeste 0 960.4 -- 64
2020-11-20 02:00:00 15.9 5 Norte 25 Sur 0 960.4 -- 54
2020-11-20 01:00:00 17.4 6 Sur 23 Sur 0 960.8 -- 48
2020-11-20 00:00:00 15.6 11 Sur 17 Sur 0 961.2 -- 59
2020-11-19 23:00:00 15.8 4 Nordeste 9 Sur 0 961.7 -- 57
2020-11-19 22:00:00 15.6 3 Sudeste 9 Sudoeste 0 961.6 -- 57
2020-11-19 21:00:00 16.9 4 Oeste 15 Oeste 0 961.4 -- 54
2020-11-19 20:00:00 17.6 8 Oeste 10 Oeste 0 961.1 -- 52
2020-11-19 19:00:00 19.1 5 Sur 17 Sur 0 960.4 -- 46
2020-11-19 18:00:00 19.3 11 Sur 14 Sur 0 959.9 -- 46
2020-11-19 17:00:00 20.2 5 Sur 11 Sur 0 960.3 -- 46
2020-11-19 16:00:00 21.6 5 Sur 10 Sur 0 960.3 -- 43
2020-11-19 15:00:00 22.2 4 Oeste 9 Sudoeste 0 960.4 -- 40
2020-11-19 14:00:00 21 6 Norte 12 Noroeste 0 960.7 -- 44
2020-11-19 13:00:00 20 6 Noroeste 11 Norte 0 961 -- 49
2020-11-19 12:00:00 19.4 3 Norte 6 Nordeste 0 961.3 -- 52
2020-11-19 11:00:00 18.2 4 Sudeste 13 Oeste 0 961.4 -- 54
2020-11-19 10:00:00 16.5 9 Oeste 13 Oeste 0 961.3 -- 54
2020-11-19 09:00:00 14.5 4 Oeste 9 Norte 0 960.7 -- 61
2020-11-19 08:00:00 12.7 3 Sudoeste 9 Sur 0 959.9 -- 66
2020-11-19 07:00:00 13.1 2 Nordeste 5 Sur 0 959.4 -- 66
2020-11-19 06:00:00 13.5 0 Calma 5 Sudeste 0 959 -- 64
2020-11-19 05:00:00 13.8 3 Sudoeste 8 Sur 0 958.8 -- 64
2020-11-19 04:00:00 14.1 4 Sur 6 Sudoeste 0 958.8 -- 62
2020-11-19 03:00:00 14.4 2 Nordeste 9 Oeste 0 958.8 -- 59
2020-11-19 02:00:00 15.8 4 Oeste 9 Oeste 0 958.9 -- 56
2020-11-19 01:00:00 16.5 3 Sur 10 Sur 0 959.1 -- 53
2020-11-19 00:00:00 16.8 7 Sur 10 Sur 0 959.5 -- 52
2020-11-18 23:00:00 16.5 3 Sur 8 Sur 0 959.5 -- 52
2020-11-18 22:00:00 18 6 Sur 10 Sur 0 959.2 -- 46
2020-11-18 21:00:00 18.2 6 Sur 10 Sur 0 958.9 -- 43
2020-11-18 20:00:00 17.8 6 Sur 9 Sur 0 958.7 -- 43
2020-11-18 19:00:00 18.5 5 Sudeste 8 Sur 0 958.5 -- 38
2020-11-18 18:00:00 18.2 4 Sur 7 Sur 0 958.2 -- 43
2020-11-18 17:00:00 19.5 5 Sur 6 Sur 0 958.2 -- 38
2020-11-18 16:00:00 21.5 3 Sur 8 Este 0 958.2 -- 39
2020-11-18 15:00:00 22.4 3 Norte 7 Noroeste 0 958.4 -- 39
2020-11-18 14:00:00 21.5 4 Norte 11 Norte 0 958.8 -- 46
2020-11-18 13:00:00 20.5 4 Norte 6 Norte 0 959.2 -- 52
2020-11-18 12:00:00 19.7 3 Este 8 Sudeste 0 959.7 -- 54
2020-11-18 11:00:00 18 3 Este 4 Nordeste 0 960.1 -- 58
2020-11-18 10:00:00 16.4 2 Sudeste 4 Noroeste 0 960 -- 61
2020-11-18 09:00:00 13.7 0 Calma 5 Sudeste 0 959.6 -- 63
2020-11-18 08:00:00 12.3 3 Sudeste 8 Sur 0 959.3 -- 67
2020-11-18 07:00:00 11.4 2 Noroeste 5 Oeste 0 959.1 -- 71
2020-11-18 06:00:00 11.6 0 Calma 6 Oeste 0 959.1 -- 70
2020-11-18 05:00:00 12.3 2 Norte 5 Sudeste 0 958.9 -- 71
2020-11-18 04:00:00 12.5 2 Sudoeste 5 Sur 0 959.2 -- 70
2020-11-18 03:00:00 12.8 2 Sudeste 9 Oeste 0 959.4 -- 72
2020-11-18 02:00:00 13.2 0 Calma 7 Sudoeste 0 959.5 -- 75
2020-11-18 01:00:00 14.5 6 Sudoeste 10 Sur 0 960 -- 65
2020-11-18 00:00:00 15.7 8 Sur 11 Sur 0 960 -- 66
2020-11-17 23:00:00 14 4 Sudoeste 7 Sudoeste 0 960 -- 73
2020-11-17 22:00:00 14.4 4 Sudoeste 9 Sudoeste 0 959.9 -- 80
2020-11-17 21:00:00 14.4 5 Sudoeste 8 Sudoeste 0 959.7 -- 84
2020-11-17 20:00:00 15 4 Sudoeste 9 Sudoeste 0 959.6 -- 82
2020-11-17 19:00:00 15.3 3 Sudoeste 9 Sudoeste 0 959.4 -- 81
2020-11-17 18:00:00 16.6 8 Sudoeste 9 Sudoeste 0 959 -- 79
2020-11-17 17:00:00 18.2 2 Sur 5 Sur 0 958.8 -- 73
2020-11-17 16:00:00 20 3 Sur 9 Noroeste 0 958.7 -- 66
2020-11-17 15:00:00 20.8 4 Nordeste 13 Norte 0 958.8 -- 61
2020-11-17 14:00:00 20.4 4 Norte 9 Norte 0 959.1 -- 61
2020-11-17 13:00:00 19.5 4 Norte 9 Nordeste 0 959.6 -- 64
2020-11-17 12:00:00 18.8 3 Nordeste 7 Este 0 960.3 -- 62
2020-11-17 11:00:00 16.8 3 Nordeste 6 Nordeste 0 960.3 -- 74
2020-11-17 10:00:00 16 2 Norte 4 Norte 0 959.8 -- 80
2020-11-17 09:00:00 14.1 2 Oeste 5 Sudoeste 0 959.2 -- 87
2020-11-17 08:00:00 13 2 Sudoeste 12 Sur 0 958.9 -- 88
2020-11-17 07:00:00 14.5 11 Sur 17 Sur 0 958.3 -- 87
2020-11-17 06:00:00 14.2 8 Sur 13 Sur 0 958.2 -- 90
2020-11-17 05:00:00 14.6 8 Sur 12 Sur 0 958.1 -- 91
2020-11-17 04:00:00 14.1 4 Sur 8 Sur 0 958.2 -- 97
2020-11-17 03:00:00 13 4 Sur 5 Sudoeste 0 958.1 -- 97
2020-11-17 02:00:00 13.2 4 Sudoeste 7 Sudoeste 0 958 -- 94
2020-11-17 01:00:00 13.8 6 Sudoeste 10 Oeste 0 958.4 -- 92
2020-11-17 00:00:00 14 6 Sudoeste 9 Sudoeste 0 958.4 -- 91
2020-11-16 23:00:00 14.6 6 Sur 8 Sur 0 958.6 -- 91
2020-11-16 22:00:00 14.5 4 Sudoeste 7 Sudoeste 0 958.6 -- 88
2020-11-16 21:00:00 15 4 Sudoeste 9 Sudoeste 0 958.1 -- 88
2020-11-16 20:00:00 15.7 8 Sudoeste 9 Sudoeste 0 957.8 -- 83
2020-11-16 19:00:00 15.7 4 Sudoeste 9 Sur 0 956.8 -- 77
2020-11-16 18:00:00 17 4 Sur 7 Sudoeste 0 956.7 -- 74
2020-11-16 17:00:00 18.9 4 Noroeste 17 Noroeste 0 956.6 -- 76
2020-11-16 16:00:00 19.5 8 Noroeste 18 Norte 0 956.3 -- 74
2020-11-16 15:00:00 20.2 3 Oeste 12 Norte 0 956.2 -- 73
2020-11-16 14:00:00 19.8 4 Este 10 Sudeste 0 956.4 -- 74
2020-11-16 13:00:00 20.1 5 Este 13 Este 0 957.2 -- 71
2020-11-16 12:00:00 20 5 Nordeste 12 Norte 0 957.7 -- 70
2020-11-16 11:00:00 18.6 3 Nordeste 7 Este 0 957.7 -- 69
2020-11-16 10:00:00 16.9 4 Sudeste 6 Sudeste 0 957.2 -- 75
2020-11-16 09:00:00 14.8 2 Sur 6 Sur 0 956.6 -- 82
2020-11-16 08:00:00 14.3 2 Sudeste 13 Sudoeste 0 955.9 -- 80
2020-11-16 07:00:00 14.4 4 Noroeste 11 Este 0 955.6 -- 80
2020-11-16 06:00:00 13.6 4 Sur 7 Sudeste 0 955.6 -- 83
2020-11-16 05:00:00 13.6 3 Sudoeste 9 Oeste 0 955.5 -- 83
2020-11-16 04:00:00 15.1 5 Este 8 Este 0 955.8 -- 81
2020-11-16 03:00:00 15.5 0 Calma 9 Sur 0 955.5 -- 82
2020-11-16 02:00:00 16 2 Sudoeste 9 Sudoeste 0 955.7 -- 78
2020-11-16 01:00:00 18.1 3 Sur 29 Sudoeste 0 955.6 -- 70
2020-11-16 00:00:00 16.3 4 Noroeste 9 Noroeste 0 955.8 -- 78
2020-11-15 23:00:00 16.1 4 Oeste 7 Sudoeste 0 956.1 -- 78
2020-11-15 22:00:00 16.3 4 Sudoeste 11 Sudoeste 0 956.4 -- 80
2020-11-15 21:00:00 16.4 5 Oeste 11 Sudeste 0 956.3 -- 80
2020-11-15 20:00:00 17.2 9 Sur 14 Sur 0 956.1 -- 80
2020-11-15 19:00:00 16.5 3 Sur 7 Sur 0 956 -- 85
2020-11-15 18:00:00 17.5 2 Sudoeste 5 Sudoeste 0 955.4 -- 82
2020-11-15 17:00:00 19.3 2 Sudoeste 5 Oeste 0 955.1 -- 72
2020-11-15 16:00:00 20.4 3 Sur 6 Nordeste 0 954.9 -- 68
2020-11-15 15:00:00 20.9 4 Norte 10 Norte 0 955 -- 65
2020-11-15 14:00:00 20.4 3 Norte 8 Nordeste 0 955.5 -- 66
2020-11-15 13:00:00 19.3 3 Nordeste 10 Este 0 956.1 -- 67
2020-11-15 12:00:00 17.8 4 Norte 10 Sudeste 0 956.6 -- 74
2020-11-15 11:00:00 16.4 4 Este 8 Nordeste 0 956.5 -- 80
2020-11-15 10:00:00 15.1 2 Nordeste 5 Nordeste 0 956.6 -- 86
2020-11-15 09:00:00 13.8 2 Sur 7 Sudeste 0 955.9 -- 88
2020-11-15 08:00:00 13 5 Sur 9 Oeste 0 955.8 -- 86
2020-11-15 07:00:00 14.9 8 Sur 22 Sur 0 955.2 -- 77
2020-11-15 06:00:00 14.6 15 Sur 22 Sur 0 954.9 -- 79
2020-11-15 05:00:00 14.4 15 Sur 22 Sur 0 954.9 -- 85
2020-11-15 04:00:00 13.8 2 Sudeste 9 Oeste 0 955.9 -- 94
2020-11-15 03:00:00 13.5 6 Sudoeste 12 Oeste 0 955.9 -- 93
2020-11-15 02:00:00 12.9 4 Sudeste 6 Sur 0 955.8 -- 96
2020-11-15 01:00:00 13.5 2 Sudoeste 8 Oeste 0 956.2 -- 95
2020-11-15 00:00:00 13 4 Sur 6 Sur 0 956.1 -- 96
2020-11-14 23:00:00 13.4 3 Sudoeste 7 Sur 0 956.2 -- 96
2020-11-14 22:00:00 13.4 3 Sur 8 Sudoeste 0 956.1 -- 95
2020-11-14 21:00:00 13.7 4 Sudeste 17 Noroeste 0 955.7 -- 95
2020-11-14 20:00:00 14.5 5 Oeste 19 Oeste 0 955.2 -- 93
2020-11-14 19:00:00 14.4 3 Noroeste 15 Oeste 0.2 954.6 -- 96
2020-11-14 18:00:00 14 5 Este 10 Este 0.6 954.2 -- 96
2020-11-14 17:00:00 14.5 2 Este 7 Nordeste 0.2 954.2 -- 94
2020-11-14 16:00:00 15 3 Este 9 Noroeste 0 953.9 -- 91
2020-11-14 15:00:00 15.3 4 Norte 6 Norte 0 953.9 -- 84
2020-11-14 14:00:00 15.2 4 Este 11 Este 0 954 -- 84
2020-11-14 13:00:00 14.9 2 Nordeste 11 Norte 0 954.6 -- 86
2020-11-14 12:00:00 15 6 Noroeste 11 Norte 0 955 -- 86
2020-11-14 11:00:00 15 5 Norte 7 Norte 0 954.7 -- 85
2020-11-14 10:00:00 15.2 2 Sudeste 6 Oeste 0 954.4 -- 82
2020-11-14 09:00:00 14.7 5 Oeste 8 Oeste 0 954 -- 78
2020-11-14 08:00:00 14.3 4 Sudoeste 8 Sudeste 0 953.4 -- 82
2020-11-14 07:00:00 14.1 4 Sudeste 12 Sur 0 953.1 -- 84
2020-11-14 06:00:00 14.1 6 Sur 12 Sudoeste 0.2 953 -- 84
2020-11-14 05:00:00 15.6 8 Sur 14 Sur 0 952.8 -- 64
2020-11-14 04:00:00 14.7 3 Sudeste 5 Sudeste 0 953.1 -- 76
2020-11-14 03:00:00 15.2 5 Sudoeste 12 Oeste 0 953.5 -- 76
2020-11-14 02:00:00 15.5 5 Oeste 8 Sudoeste 0 953.7 -- 70
2020-11-14 01:00:00 15.3 4 Sudoeste 8 Oeste 0 953.9 -- 65
2020-11-14 00:00:00 15.5 5 Sudoeste 7 Sudoeste 0 954.1 -- 65
2020-11-13 23:00:00 15.1 3 Sur 7 Sur 0 954 -- 68
2020-11-13 22:00:00 15.4 5 Sur 9 Sur 0 954 -- 66
2020-11-13 21:00:00 15.2 4 Sur 9 Sur 0 953.6 -- 68
2020-11-13 20:00:00 15.2 8 Sur 11 Sur 0 953.4 -- 67
2020-11-13 19:00:00 14.9 9 Sur 11 Sur 0 953 -- 68
2020-11-13 18:00:00 15.5 4 Sur 7 Sudoeste 0 952.8 -- 69
2020-11-13 17:00:00 16.9 5 Sur 8 Nordeste 0 952.6 -- 63
2020-11-13 16:00:00 18.1 5 Norte 12 Noroeste 0 952.6 -- 57
2020-11-13 15:00:00 18.5 5 Norte 12 Noroeste 0 952.8 -- 56
2020-11-13 14:00:00 18.4 3 Nordeste 7 Norte 0 953.1 -- 57
2020-11-13 13:00:00 17.9 4 Norte 9 Norte 0 953.7 -- 61
2020-11-13 12:00:00 16.9 3 Nordeste 8 Nordeste 0 954.2 -- 62
2020-11-13 11:00:00 15.4 4 Este 8 Este 0 954.2 -- 66
2020-11-13 10:00:00 14.8 3 Noroeste 5 Sudeste 0 954 -- 70
2020-11-13 09:00:00 11.8 0 Calma 6 Sur 0 953.5 -- 78
2020-11-13 08:00:00 10.1 4 Sudoeste 6 Sudoeste 0 953 -- 82
2020-11-13 07:00:00 10.2 0 Calma 6 Sur 0 952.5 -- 82
2020-11-13 06:00:00 10.2 3 Sur 5 Sur 0 952.4 -- 82
2020-11-13 05:00:00 10.7 3 Sudoeste 8 Sur 0 952.3 -- 80
2020-11-13 04:00:00 11.2 5 Sur 8 Sur 0 952.5 -- 78
2020-11-13 03:00:00 11.1 4 Sur 7 Sudoeste 0 952.7 -- 77
2020-11-13 02:00:00 11.6 4 Sudoeste 8 Sudoeste 0 952.6 -- 75
2020-11-13 01:00:00 12.3 3 Sudoeste 6 Sudoeste 0 952.9 -- 72
2020-11-13 00:00:00 13.9 3 Sudoeste 11 Sur 0 952.7 -- 65
2020-11-12 23:00:00 14.3 6 Sudoeste 12 Sudoeste 0 952.6 -- 61
2020-11-12 22:00:00 15 5 Sur 11 Sur 0 952.3 -- 59
2020-11-12 21:00:00 14.5 5 Sur 11 Sur 0 952.2 -- 60
2020-11-12 20:00:00 14.2 8 Sur 9 Sur 0 952.2 -- 59
2020-11-12 19:00:00 13.1 4 Sudoeste 8 Sudoeste 0 952.3 -- 62
2020-11-12 18:00:00 15.2 2 Sur 5 Sudoeste 0 952 -- 56
2020-11-12 17:00:00 17.4 4 Sudoeste 6 Sudoeste 0 951.9 -- 51
2020-11-12 16:00:00 17.9 2 Norte 8 Noroeste 0 951.7 -- 49
2020-11-12 15:00:00 17.5 4 Norte 8 Norte 0 952 -- 52
2020-11-12 14:00:00 16.7 4 Norte 8 Nordeste 0 952.7 -- 58
2020-11-12 13:00:00 17.2 3 Este 10 Nordeste 0 953.5 -- 55
2020-11-12 12:00:00 16.6 3 Nordeste 9 Norte 0 954.5 -- 59
2020-11-12 11:00:00 15.3 5 Norte 13 Nordeste 0 954.9 -- 63
2020-11-12 10:00:00 15.8 9 Sudeste 24 Sur 0 954.6 -- 53
2020-11-12 09:00:00 14.5 18 Sur 27 Sur 0 954.2 -- 54
2020-11-12 08:00:00 13.4 18 Sur 25 Sur 0 953.8 -- 60
2020-11-12 07:00:00 13 13 Sudeste 21 Sudeste 0 953.7 -- 64
2020-11-12 06:00:00 13.2 11 Sur 26 Sur 0 954 -- 65
2020-11-12 05:00:00 13.5 12 Sudeste 24 Sur 0 954.4 -- 66
2020-11-12 04:00:00 13.9 14 Sudeste 28 Sudeste 0 954.6 -- 65
2020-11-12 03:00:00 14.3 16 Sur 26 Sur 0 955 -- 65
2020-11-12 02:00:00 14.2 12 Sudeste 21 Sudeste 0 955.2 -- 65
2020-11-12 01:00:00 14.7 14 Sudeste 24 Sur 0 955.6 -- 61
2020-11-12 00:00:00 15.4 10 Sudeste 22 Sur 0 955.6 -- 58
2020-11-11 23:00:00 13.7 12 Sur 16 Sur 0 955.6 -- 63
2020-11-11 22:00:00 14.1 4 Noroeste 9 Norte 0 955.7 -- 63
2020-11-11 21:00:00 14.5 6 Sur 10 Sur 0 955.2 -- 58
2020-11-11 20:00:00 14.2 7 Sur 9 Sur 0 955.2 -- 59
2020-11-11 19:00:00 13.6 3 Sudoeste 7 Sudoeste 0 955.1 -- 60
2020-11-11 18:00:00 15.6 4 Sur 10 Nordeste 0 954.9 -- 52
2020-11-11 17:00:00 18.2 4 Este 13 Nordeste 0 954.5 -- 43
2020-11-11 16:00:00 19.3 6 Este 17 Este 0 954.4 -- 40
2020-11-11 15:00:00 19.8 10 Sudeste 26 Este 0 954.5 -- 38
2020-11-11 14:00:00 20 6 Este 17 Este 0 955.3 -- 35
2020-11-11 13:00:00 19.3 9 Este 23 Este 0 956 -- 44
2020-11-11 12:00:00 18.6 7 Este 17 Sudeste 0 956.8 -- 49
2020-11-11 11:00:00 17.3 5 Este 36 Este 0 957.1 -- 59
2020-11-11 10:00:00 15.8 19 Sudeste 31 Sudeste 0 956.9 -- 59
2020-11-11 09:00:00 14.5 13 Sur 27 Sudeste 0 957 -- 66
2020-11-11 08:00:00 13.4 15 Sur 30 Sudeste 0 956.7 -- 68
2020-11-11 07:00:00 13.7 18 Sudeste 32 Sudeste 0 956.6 -- 67
2020-11-11 06:00:00 13.8 15 Sudeste 28 Sudeste 0 956.7 -- 67
2020-11-11 05:00:00 14.3 14 Sudeste 26 Sudeste 0 956.9 -- 65
2020-11-11 04:00:00 14.2 12 Sur 22 Sudeste 0 957.3 -- 64
2020-11-11 03:00:00 14.3 12 Sudeste 19 Sudeste 0 957.7 -- 64
2020-11-11 02:00:00 15 13 Sudeste 24 Sudeste 0 957.3 -- 62
2020-11-11 01:00:00 14.5 9 Sudeste 20 Sudeste 0 957.7 -- 63
2020-11-11 00:00:00 14.3 12 Sur 18 Sur 0 958.1 -- 64
2020-11-10 23:00:00 14.2 10 Sur 15 Sur 0 957.9 -- 69
2020-11-10 22:00:00 13.1 8 Sudoeste 12 Sudoeste 0 958 -- 72
2020-11-10 21:00:00 14.3 6 Sur 11 Sur 0 957.6 -- 67
2020-11-10 20:00:00 13.9 9 Sur 12 Sur 0 957.5 -- 63
2020-11-10 19:00:00 12.8 5 Sudoeste 7 Sur 0 957.5 -- 71
2020-11-10 18:00:00 14 4 Sudoeste 9 Oeste 0 957.2 -- 75
2020-11-10 17:00:00 15.7 6 Sudoeste 9 Sudoeste 0 957.1 -- 72
2020-11-10 16:00:00 15.8 8 Sudoeste 10 Sudoeste 0 956.9 -- 72
2020-11-10 15:00:00 17.3 4 Sudoeste 12 Noroeste 0 956.9 -- 68
2020-11-10 14:00:00 18 3 Este 12 Nordeste 0 957.4 -- 60
2020-11-10 13:00:00 17.7 4 Nordeste 13 Noroeste 0 958.1 -- 67
2020-11-10 12:00:00 16.6 6 Nordeste 12 Sudeste 0 958.5 -- 67
2020-11-10 11:00:00 15.7 6 Este 12 Este 0 958.3 -- 70
2020-11-10 10:00:00 13.3 3 Nordeste 5 Norte 0 958.5 -- 81
2020-11-10 09:00:00 13.4 5 Sudeste 17 Sudeste 0 958.1 -- 86
2020-11-10 08:00:00 10.5 6 Sur 10 Sur 0 957.6 -- 95
2020-11-10 07:00:00 10.8 4 Sur 8 Sur 0 957.2 -- 93
2020-11-10 06:00:00 10.9 5 Sudeste 10 Sudeste 0 956.9 -- 93
2020-11-10 05:00:00 10.3 6 Sudeste 10 Sudeste 0 956.8 -- 93
2020-11-10 04:00:00 9.9 4 Sudoeste 6 Oeste 0 956.8 -- 95
2020-11-10 03:00:00 10.2 3 Sudoeste 6 Sur 0 956.8 -- 93
2020-11-10 02:00:00 10.7 2 Sur 12 Sur 0 956.9 -- 89
2020-11-10 01:00:00 11.2 8 Sur 11 Sur 0 957.1 -- 94
2020-11-10 00:00:00 11.3 3 Sudoeste 7 Sur 0 957.3 -- 94
2020-11-09 23:00:00 11.5 5 Sur 7 Sur 0 957.5 -- 94
2020-11-09 22:00:00 11.9 4 Sur 6 Sur 0 957.2 -- 94
2020-11-09 21:00:00 12 6 Sudoeste 8 Oeste 0 956.9 -- 89
2020-11-09 20:00:00 12.4 5 Sur 7 Sur 0 956.7 -- 91
2020-11-09 19:00:00 13.2 3 Sudoeste 5 Sudoeste 0 956.3 -- 87
2020-11-09 18:00:00 14.8 2 Oeste 10 Noroeste 0 955.9 -- 83
2020-11-09 17:00:00 15.8 6 Noroeste 15 Noroeste 0 955.7 -- 78
2020-11-09 16:00:00 16.6 5 Norte 12 Norte 0 955.5 -- 72
2020-11-09 15:00:00 16.7 6 Norte 13 Noroeste 0 955.3 -- 75
2020-11-09 14:00:00 16.1 6 Noroeste 11 Noroeste 0 955.6 -- 77
2020-11-09 13:00:00 15.6 7 Norte 11 Noroeste 0 956 -- 81
2020-11-09 12:00:00 16.4 3 Norte 9 Norte 0 956.6 -- 74
2020-11-09 11:00:00 15 2 Este 8 Nordeste 0 956.7 -- 83
2020-11-09 10:00:00 13 0 Calma 6 Norte 0 956.6 -- 89
2020-11-09 09:00:00 12.4 0 Calma 3 Este 0 956.1 -- 91
2020-11-09 08:00:00 11.2 0 Calma 7 Oeste 0 955.3 -- 87
2020-11-09 07:00:00 10.4 3 Sur 10 Oeste 0 954.7 -- 83
2020-11-09 06:00:00 10.6 3 Sur 8 Sur 0 954.4 -- 81
2020-11-09 05:00:00 11 0 Calma 10 Sudoeste 0 954.3 -- 79
2020-11-09 04:00:00 11.3 4 Sudoeste 9 Sudoeste 0 954.2 -- 78
2020-11-09 03:00:00 11.5 3 Oeste 9 Oeste 0 954.5 -- 78
2020-11-09 02:00:00 12.1 4 Sudoeste 10 Sudoeste 0 954.4 -- 74
2020-11-09 01:00:00 12 6 Sudoeste 12 Sudoeste 0 954.7 -- 75
2020-11-09 00:00:00 12.5 5 Sudoeste 11 Oeste 0 954.8 -- 73
2020-11-08 23:00:00 13.1 4 Sudoeste 8 Sudoeste 0 954.9 -- 77
2020-11-08 22:00:00 13.4 8 Sudoeste 11 Sudoeste 0 954.9 -- 77
2020-11-08 21:00:00 13.6 4 Sudoeste 12 Sur 0 954.8 -- 76
2020-11-08 20:00:00 13.7 10 Sur 13 Sur 0 954.8 -- 76
2020-11-08 19:00:00 14.1 8 Sur 11 Sur 0 954.7 -- 76
2020-11-08 18:00:00 14.9 6 Sur 8 Sur 0 954.5 -- 74
2020-11-08 17:00:00 16.6 3 Sudoeste 5 Sudoeste 0 954.4 -- 70
2020-11-08 16:00:00 17.4 4 Noroeste 10 Norte 0 954.5 -- 63
2020-11-08 15:00:00 18.6 6 Norte 10 Nordeste 0 954.5 -- 58
2020-11-08 14:00:00 18.5 5 Norte 11 Norte 0 954.9 -- 60
2020-11-08 13:00:00 17.7 3 Norte 8 Sudeste 0 955.4 -- 60
2020-11-08 12:00:00 16.7 4 Nordeste 9 Noroeste 0 956.2 -- 63
2020-11-08 11:00:00 16.2 4 Nordeste 9 Este 0 956.3 -- 67
2020-11-08 10:00:00 14.5 2 Sudoeste 6 Sudeste 0 956.4 -- 72
2020-11-08 09:00:00 12.1 3 Sudoeste 8 Sudoeste 0 956.2 -- 74
2020-11-08 08:00:00 10.1 0 Calma 9 Oeste 0 955.8 -- 79
2020-11-08 07:00:00 12.1 4 Noroeste 24 Sur 0 955.5 -- 70
2020-11-08 06:00:00 10.2 4 Sur 7 Este 0 955.7 -- 86
2020-11-08 05:00:00 10.1 2 Sudoeste 9 Sudoeste 0 955.8 -- 85
2020-11-08 04:00:00 10.7 3 Sudoeste 9 Sudoeste 0 955.7 -- 86
2020-11-08 03:00:00 11.1 3 Norte 12 Sur 0 955.9 -- 87
2020-11-08 02:00:00 10.9 2 Sur 8 Sudoeste 0 956.3 -- 89
2020-11-08 01:00:00 10.9 3 Sudoeste 8 Sudoeste 0 956.7 -- 90
2020-11-08 00:00:00 11.7 4 Sudoeste 14 Sur 0 956.8 -- 87
2020-11-07 23:00:00 12.4 10 Sur 13 Sur 0 956.9 -- 87
2020-11-07 22:00:00 12.4 8 Sur 14 Sur 0 956.7 -- 89
2020-11-07 21:00:00 12.9 6 Sur 12 Sur 0 956.6 -- 87
2020-11-07 20:00:00 12.9 3 Sur 12 Sur 0 956.6 -- 85
2020-11-07 19:00:00 13.4 8 Oeste 12 Oeste 0 956.2 -- 84
2020-11-07 18:00:00 14.7 8 Oeste 17 Noroeste 0 955.7 -- 79
2020-11-07 17:00:00 16.3 11 Noroeste 26 Noroeste 0 955.2 -- 70
2020-11-07 16:00:00 17.2 13 Oeste 23 Noroeste 0 954.9 -- 62
2020-11-07 15:00:00 16.8 12 Oeste 30 Noroeste 0 954.6 -- 68
2020-11-07 14:00:00 17 14 Oeste 35 Oeste 0 954.3 -- 63
2020-11-07 13:00:00 16.4 12 Sudoeste 30 Sudoeste 0 954.3 -- 63
2020-11-07 12:00:00 15.7 11 Sudoeste 35 Oeste 0.2 954.5 -- 67
2020-11-07 11:00:00 14.6 19 Sudoeste 41 Sudoeste 0 954 -- 73
2020-11-07 10:00:00 13.7 16 Oeste 39 Oeste 0 952.6 -- 81
2020-11-07 09:00:00 12.4 10 Oeste 51 Sur 3.8 951 -- 93
2020-11-07 08:00:00 15.7 23 Sudoeste 78 Oeste 0.2 949.3 -- 66
2020-11-07 07:00:00 14.5 19 Sur 42 Sur 2 948.5 -- 73
2020-11-07 06:00:00 12.4 17 Sur 26 Sur 0 948.6 -- 86
2020-11-07 05:00:00 13 8 Sudoeste 37 Oeste 0.2 948.7 -- 84
2020-11-07 04:00:00 16.8 8 Sudoeste 37 Sur 0 948 -- 60
2020-11-07 03:00:00 17.4 12 Sur 63 Sudeste 0 947.8 -- 56
2020-11-07 02:00:00 16.1 17 Sur 47 Sur 1.2 947.7 -- 60
2020-11-07 01:00:00 14 19 Sudeste 49 Sudoeste 6.8 949.5 -- 80
2020-11-07 00:00:00 13.9 7 Sudoeste 18 Sur 1.8 951 -- 89
2020-11-06 23:00:00 14.9 13 Sur 21 Sudoeste 0.2 950.3 -- 83
2020-11-06 22:00:00 15.6 14 Sudoeste 37 Sudoeste 1.4 949.2 -- 79
2020-11-06 21:00:00 18.2 12 Sudoeste 19 Sudoeste 0 947.6 -- 61
2020-11-06 20:00:00 18.7 12 Oeste 22 Oeste 0 947.7 -- 63
2020-11-06 19:00:00 19.7 10 Oeste 18 Oeste 0 947 -- 57
2020-11-06 18:00:00 21 13 Noroeste 28 Oeste 0 946.6 -- 51
2020-11-06 17:00:00 22 19 Sudeste 42 Sudeste 0 945.2 -- 45
2020-11-06 16:00:00 22.4 19 Sudeste 36 Sudeste 0 945.1 -- 45
2020-11-06 15:00:00 22.5 17 Sudeste 36 Sur 0 945.2 -- 46
2020-11-06 14:00:00 24.1 19 Sudeste 42 Sudeste 0 945.5 -- 35
2020-11-06 13:00:00 24.9 18 Sudeste 48 Sudeste 0 946 -- 34
2020-11-06 12:00:00 23.1 27 Sudeste 52 Sudeste 0 946.8 -- 35
2020-11-06 11:00:00 21 25 Sudeste 40 Sudeste 0 947 -0.2 44
2020-11-06 10:00:00 20.4 17 Sudeste 42 Sudeste 0 947.5 -- 45
2020-11-06 09:00:00 19.1 23 Sudeste 35 Sudeste 0 947.3 -- 46
2020-11-06 08:00:00 18.3 19 Sudeste 34 Sudeste 0 947.2 -- 49
2020-11-06 07:00:00 18.8 15 Sudeste 43 Sudeste 0 946.9 -- 45
2020-11-06 06:00:00 18.2 21 Sudeste 38 Sudeste 0 946.9 -- 46
2020-11-06 05:00:00 18.2 23 Sudeste 36 Sudeste 0 947.3 -- 48
2020-11-06 04:00:00 17.5 19 Sudeste 35 Sudeste 0 947.7 -- 52
2020-11-06 03:00:00 18.1 19 Sudeste 36 Sudeste 0 948.4 -- 48
2020-11-06 02:00:00 18.3 19 Sudeste 41 Sudeste 0 948.5 -- 47
2020-11-06 01:00:00 17.6 24 Sudeste 42 Sudeste 0 948.7 -- 52
2020-11-06 00:00:00 17.2 15 Sudeste 46 Este 0 949.3 -- 54
2020-11-05 23:00:00 17.1 21 Sudeste 37 Sudeste 0 949.3 -- 55
2020-11-05 22:00:00 17.3 21 Sur 35 Sur 0 949 -- 55
2020-11-05 21:00:00 16.4 14 Sudeste 20 Sudeste 0 949.1 -- 62
2020-11-05 20:00:00 16.2 12 Sudeste 23 Sudeste 0 948.9 -- 66
2020-11-05 19:00:00 15.5 2 Sur 11 Sur 0 948.3 -- 72
2020-11-05 18:00:00 16.8 3 Sudoeste 10 Noroeste 0 947.5 -- 71
2020-11-05 17:00:00 18.7 4 Noroeste 27 Sudeste 0 947 -- 64
2020-11-05 16:00:00 19.3 12 Sudeste 41 Sudeste 0 946.9 -- 56
2020-11-05 15:00:00 20.1 23 Sudeste 42 Sudeste 0 946.1 -- 54
2020-11-05 14:00:00 18.7 18 Sudeste 44 Sudeste 0 946.3 -- 57
2020-11-05 13:00:00 17.9 16 Sudeste 45 Sur 0 947.2 -- 63
2020-11-05 12:00:00 17 21 Sudeste 43 Sudeste 0 947.9 -- 68
2020-11-05 11:00:00 16.5 15 Sudeste 39 Sudeste 0 948.9 -- 70
2020-11-05 10:00:00 15.7 17 Sudeste 35 Este 0 948.7 -- 71
2020-11-05 09:00:00 15.8 15 Sudeste 24 Sudeste 0 948 -- 70
2020-11-05 08:00:00 14.9 9 Sur 27 Sudeste 0 947.1 -- 77
2020-11-05 07:00:00 14.7 15 Sudeste 30 Sudeste 0 946.8 -- 77
2020-11-05 06:00:00 12.9 2 Norte 25 Sudeste 0 946.7 -- 87
2020-11-05 05:00:00 13.1 17 Sudeste 37 Sudeste 0 946.5 -- 84
2020-11-05 04:00:00 12.7 17 Sudeste 44 Sudeste 2.6 946.4 -- 88
2020-11-05 03:00:00 13.7 21 Sudeste 46 Sudeste 2.4 947.6 -- 85
2020-11-05 02:00:00 15.8 29 Sudeste 54 Sudeste 0 946.4 -- 67
2020-11-05 01:00:00 16 24 Sudeste 51 Sudeste 0 945.8 -- 66
2020-11-05 00:00:00 15.9 23 Sudeste 43 Sudeste 0 946.8 -- 68
2020-11-04 23:00:00 15.7 17 Sudeste 38 Sudeste 0 947.3 -- 69
2020-11-04 22:00:00 15.5 19 Sudeste 31 Sudeste 0 947.1 -- 70
2020-11-04 21:00:00 14.4 10 Sudeste 20 Sudeste 0 947 -- 76
2020-11-04 20:00:00 13 9 Sur 14 Sudeste 0 947.3 -- 87
2020-11-04 19:00:00 13.3 7 Sudeste 13 Sudeste 0 947.3 -- 90
2020-11-04 18:00:00 13.8 2 Sudeste 6 Este 0 947.1 -- 87
2020-11-04 17:00:00 14.4 3 Nordeste 9 Sudeste 0 947.5 -- 82
2020-11-04 16:00:00 14 4 Este 8 Nordeste 0 947.7 -- 87
2020-11-04 15:00:00 14.1 4 Nordeste 9 Nordeste 0 948.1 -- 86
2020-11-04 14:00:00 13 0 Calma 6 Norte 0.2 948.9 -- 93
2020-11-04 13:00:00 12.9 3 Norte 16 Norte 0 949.7 -- 93
2020-11-04 12:00:00 13.9 8 Noroeste 23 Sudeste 0 950.4 -- 86
2020-11-04 11:00:00 12.8 0 Calma 8 Norte 0.6 951.3 -0.5 90
2020-11-04 10:00:00 12.3 4 Sudeste 31 Sur 0.8 951.7 -- 92
2020-11-04 09:00:00 12.2 18 Sur 32 Sur 0.2 951.2 -- 85
2020-11-04 08:00:00 12.6 19 Sur 28 Sudeste 2.2 951.8 -- 90
2020-11-04 07:00:00 13.3 8 Sudoeste 21 Sur 1.4 952 -- 88
2020-11-04 06:00:00 14.6 8 Sudeste 17 Este 0 951.7 -- 70
2020-11-04 05:00:00 14.7 2 Oeste 23 Noroeste 0 952.5 -- 69
2020-11-04 04:00:00 14.5 9 Oeste 13 Oeste 0 953.2 -- 70
2020-11-04 03:00:00 14.8 4 Sudeste 9 Sudeste 0 953.2 -- 67
2020-11-04 02:00:00 14.7 3 Sur 10 Sudoeste 0 953.9 -- 67
2020-11-04 01:00:00 14.9 6 Oeste 10 Noroeste 0 954.4 -- 65
2020-11-04 00:00:00 15.3 6 Sudoeste 11 Oeste 0 954.9 -- 64
2020-11-03 23:00:00 15.7 8 Oeste 11 Oeste 0 955.2 -- 63
2020-11-03 22:00:00 17.2 5 Oeste 17 Nordeste 0 955.6 -- 57
2020-11-03 21:00:00 18.6 5 Norte 17 Nordeste 0 955.5 -- 54
2020-11-03 20:00:00 19.1 10 Oeste 18 Oeste 0 955 -- 52
2020-11-03 19:00:00 19.2 12 Oeste 19 Oeste 0 954.6 -- 46
2020-11-03 18:00:00 20.4 9 Oeste 13 Oeste 0 954.5 -- 43
2020-11-03 17:00:00 21.8 6 Oeste 18 Norte 0 954.3 -- 41
2020-11-03 16:00:00 22.9 12 Noroeste 22 Oeste 0 954.3 -- 37
2020-11-03 15:00:00 23.6 8 Noroeste 15 Noroeste 0 954.4 -- 36
2020-11-03 14:00:00 23.4 9 Norte 13 Norte 0 954.9 -- 35
2020-11-03 13:00:00 22.8 5 Norte 10 Noroeste 0 955.6 -- 36
2020-11-03 12:00:00 21.8 5 Norte 12 Este 0 956 -- 39
2020-11-03 11:00:00 19.9 8 Este 16 Este 0 956.1 -- 42
2020-11-03 10:00:00 16.7 2 Norte 8 Noroeste 0 956.2 -- 55
2020-11-03 09:00:00 16 4 Oeste 12 Sudeste 0 955.7 -- 55
2020-11-03 08:00:00 13 2 Sur 5 Sur 0 955.7 -- 64
2020-11-03 07:00:00 13.5 2 Sudoeste 8 Sur 0 955.4 -- 60
2020-11-03 06:00:00 14 3 Oeste 8 Oeste 0 955.4 -- 58
2020-11-03 05:00:00 14.3 2 Sur 7 Sur 0 955.1 -- 56
2020-11-03 04:00:00 14.9 2 Sudoeste 6 Noroeste 0 955.2 -- 54
2020-11-03 03:00:00 15.3 4 Sudoeste 7 Sudoeste 0 955.2 -- 55
2020-11-03 02:00:00 16.1 4 Sudoeste 6 Sudoeste 0 955.2 -- 56
2020-11-03 01:00:00 18.1 4 Oeste 14 Oeste 0 955.5 -- 45
2020-11-03 00:00:00 17.8 10 Sudoeste 13 Oeste 0 955.8 -- 44
2020-11-02 23:00:00 18.1 8 Sudoeste 12 Sudoeste 0 955.7 -- 40
2020-11-02 22:00:00 17.4 7 Sudoeste 9 Sudoeste 0 955.7 -- 42
2020-11-02 21:00:00 17.9 7 Sudoeste 9 Sudoeste 0 955.6 -- 41
2020-11-02 20:00:00 18.3 4 Sur 11 Sudoeste 0 955.4 -- 43
2020-11-02 19:00:00 19 8 Sudoeste 13 Oeste 0 955.1 -- 46
2020-11-02 18:00:00 20.6 10 Oeste 12 Oeste 0 954.6 -- 41
2020-11-02 17:00:00 23.7 4 Noroeste 13 Noroeste 0 954.4 -- 36
2020-11-02 16:00:00 24.6 7 Norte 16 Norte 0 954.5 -- 33
2020-11-02 15:00:00 25.7 6 Norte 13 Norte 0 954.6 -- 31
2020-11-02 14:00:00 24.8 4 Norte 10 Norte 0 955.3 -- 33
2020-11-02 13:00:00 23.5 3 Nordeste 7 Nordeste 0 956 -- 36
2020-11-02 12:00:00 22 3 Norte 7 Norte 0 956.6 -- 42
2020-11-02 11:00:00 20.4 3 Sudeste 5 Este 0 956.7 -- 47
2020-11-02 10:00:00 18.5 3 Sudeste 5 Sudeste 0 956.5 -- 53
2020-11-02 09:00:00 16.5 0 Calma 5 Oeste 0 956.2 -- 59
2020-11-02 08:00:00 14.3 2 Sudoeste 5 Sudeste 0 955.6 -- 61
2020-11-02 07:00:00 14.3 2 Sur 6 Oeste 0 955.4 -- 59
2020-11-02 06:00:00 14.7 2 Sudeste 5 Este 0 955.5 -- 58
2020-11-02 05:00:00 14.6 2 Sudoeste 7 Sur 0 955.4 -- 58
2020-11-02 04:00:00 14.8 3 Sur 8 Sudoeste 0 955.6 -- 60
2020-11-02 03:00:00 16.2 6 Sudoeste 10 Sudoeste 0 955.9 -- 54
2020-11-02 02:00:00 16.8 7 Sur 11 Sur 0 956 -- 51
2020-11-02 01:00:00 16 3 Sudoeste 8 Sudoeste 0 956.3 -- 55
2020-11-02 00:00:00 16.2 5 Sudoeste 10 Sudoeste 0 956.6 -- 53
2020-11-01 23:00:00 16.9 5 Sudoeste 9 Sudoeste 0 956.7 -- 49
2020-11-01 22:00:00 17.2 5 Sudoeste 9 Sudoeste 0 956.7 -- 45
2020-11-01 21:00:00 17.4 5 Sudoeste 8 Sudoeste 0 956.4 -- 48
2020-11-01 20:00:00 18.6 5 Sur 10 Sudoeste 0 956.5 -- 47
2020-11-01 19:00:00 19.1 9 Sudoeste 10 Sudoeste 0 956.3 -- 47
2020-11-01 18:00:00 20.2 8 Sudoeste 9 Sudoeste 0 955.9 -- 44
2020-11-01 17:00:00 23.3 4 Noroeste 11 Norte 0 956.1 -- 37
2020-11-01 16:00:00 24.4 5 Norte 9 Norte 0 956.2 -- 34
2020-11-01 15:00:00 24.7 5 Norte 13 Norte 0 956.5 -- 34
2020-11-01 14:00:00 24.6 7 Norte 11 Norte 0 957.1 -- 35
2020-11-01 13:00:00 23.5 4 Norte 8 Nordeste 0 957.7 -- 36
2020-11-01 12:00:00 22 4 Nordeste 8 Sudeste 0 958.3 -- 42
2020-11-01 11:00:00 19.3 3 Nordeste 6 Nordeste 0 958.7 -- 49
2020-11-01 10:00:00 17.2 3 Oeste 5 Norte 0 958.5 -- 58
2020-11-01 09:00:00 16 3 Sudeste 11 Sudeste 0 957.7 -- 59
2020-11-01 08:00:00 12.7 0 Calma 4 Nordeste 0 957.4 -- 68
2020-11-01 07:00:00 14.8 2 Oeste 11 Sudeste 0 957.1 -- 59
2020-11-01 06:00:00 14 3 Sudoeste 7 Sur 0 957.2 -- 63
2020-11-01 05:00:00 14 0 Calma 6 Sur 0 957.8 -- 64
2020-11-01 04:00:00 14.8 0 Calma 6 Sudoeste 0 958 -- 59
2020-11-01 03:00:00 15.7 4 Sudoeste 9 Sudoeste 0 958.1 -- 56
2020-11-01 02:00:00 15.7 4 Sudoeste 7 Sudoeste 0 957.9 -- 56
2020-11-01 01:00:00 16.8 6 Sur 9 Oeste 0 958.2 -- 52
2020-11-01 00:00:00 16.8 7 Oeste 12 Oeste 0 958.2 -- 50
2020-10-31 23:00:00 16.8 2 Sur 9 Sudoeste 0 958.6 -- 52
2020-10-31 22:00:00 17.1 3 Sudoeste 7 Sur 0 958.2 -- 51
2020-10-31 21:00:00 17.5 4 Sudoeste 8 Sudoeste 0 957.9 -- 51
2020-10-31 20:00:00 19.4 8 Sudoeste 11 Sudoeste 0 957.5 -- 43
2020-10-31 19:00:00 20.2 10 Sudoeste 14 Oeste 0 957.2 -- 41
2020-10-31 18:00:00 20.8 11 Oeste 13 Oeste 0 957.1 -- 41
2020-10-31 17:00:00 23.4 5 Oeste 10 Noroeste 0 957 -- 35
2020-10-31 16:00:00 24.4 4 Este 9 Este 0 956.7 -- 32
2020-10-31 15:00:00 24.8 5 Sudeste 11 Este 0 957.1 -- 32
2020-10-31 14:00:00 24.6 4 Nordeste 10 Norte 0 957.8 -- 34
2020-10-31 13:00:00 23.9 4 Este 8 Norte 0 958.4 -- 38
2020-10-31 12:00:00 22 4 Norte 10 Nordeste 0 958.9 -- 41
2020-10-31 11:00:00 20.8 3 Este 8 Sudeste 0 958.9 -- 47
2020-10-31 10:00:00 18.7 5 Norte 9 Noroeste 0 959.1 -- 52
2020-10-31 09:00:00 16.8 0 Calma 6 Sur 0 958.6 -- 58
2020-10-31 08:00:00 14.6 3 Sudoeste 10 Sudoeste 0 958.1 -- 63
2020-10-31 07:00:00 14.6 6 Sudoeste 9 Sur 0 957.6 -- 64
2020-10-31 06:00:00 15.2 2 Sur 8 Sur 0 957.6 -- 63
2020-10-31 05:00:00 15.5 4 Sur 6 Sur 0 957.3 -- 61
2020-10-31 04:00:00 15.7 0 Calma 6 Sudoeste 0 957.1 -- 60
2020-10-31 03:00:00 16.7 5 Sudoeste 9 Sudoeste 0 957.3 -- 59
2020-10-31 02:00:00 16.6 4 Sudoeste 7 Sudoeste 0 957.3 -- 59
2020-10-31 01:00:00 16.9 5 Sudoeste 7 Sudoeste 0 957.4 -- 57
2020-10-31 00:00:00 17.1 4 Sudoeste 9 Sur 0 957.4 -- 53
2020-10-30 23:00:00 17.9 5 Sur 9 Sudoeste 0 957.5 -- 49
2020-10-30 22:00:00 18.8 6 Sur 8 Sur 0 957.4 -- 44
2020-10-30 21:00:00 19.4 5 Sudoeste 13 Sur 0 957 -- 43
2020-10-30 20:00:00 21.1 10 Sur 12 Sudoeste 0 956.8 -- 36
2020-10-30 19:00:00 20.1 8 Sur 9 Sur 0 956.6 -- 42
2020-10-30 18:00:00 21.1 4 Sudoeste 9 Sudoeste 0 956.4 -- 44
2020-10-30 17:00:00 24.2 5 Sudoeste 7 Oeste 0 956.2 -- 38
2020-10-30 16:00:00 25.1 4 Sudoeste 7 Sudoeste 0 956.3 -- 35
2020-10-30 15:00:00 25.3 3 Este 9 Este 0 956.7 -- 36
2020-10-30 14:00:00 24.7 3 Noroeste 9 Nordeste 0 957.1 -- 37
2020-10-30 13:00:00 23.5 4 Nordeste 9 Sudeste 0 957.7 -- 39
2020-10-30 12:00:00 21.2 4 Este 8 Este 0 958.3 -- 48
2020-10-30 11:00:00 18.3 2 Norte 8 Norte 0 958.5 -- 57
2020-10-30 10:00:00 17.3 4 Norte 11 Sudeste 0 958.5 -- 62
2020-10-30 09:00:00 19.3 4 Sudeste 20 Sudeste 0 958.1 -- 47
2020-10-30 08:00:00 18.6 12 Sudeste 23 Sudeste 0 957.5 -- 46
2020-10-30 07:00:00 18.2 15 Sur 26 Sur 0 957.3 -- 48
2020-10-30 06:00:00 17.9 12 Sudeste 23 Sur 0 957.3 -- 51
2020-10-30 05:00:00 17.8 11 Sudeste 21 Sur 0 957.3 -- 52
2020-10-30 04:00:00 17.5 11 Sudeste 17 Sudeste 0 957.3 -- 55
2020-10-30 03:00:00 16.9 6 Sudeste 15 Sudeste 0 957.4 -- 58
2020-10-30 02:00:00 16 6 Noroeste 8 Oeste 0 957.6 -- 61
2020-10-30 01:00:00 16.9 4 Sur 13 Sur 0 957.8 -- 56
2020-10-30 00:00:00 16.5 5 Sur 10 Nordeste 0 958.1 -- 57
2020-10-29 23:00:00 17.1 5 Sur 9 Sudoeste 0 958.1 -- 56
2020-10-29 22:00:00 18.5 5 Sur 10 Sur 0 958 -- 50
2020-10-29 21:00:00 18.8 8 Sur 11 Sur 0 957.8 -- 49
2020-10-29 20:00:00 17.8 6 Sur 8 Sur 0 957.8 -- 56
2020-10-29 19:00:00 17.8 4 Sudoeste 8 Sudoeste 0 957.3 -- 54
2020-10-29 18:00:00 19.8 6 Sudoeste 8 Sudoeste 0 956.8 -- 48
2020-10-29 17:00:00 22.5 4 Sur 7 Sur 0 956.8 -- 40
2020-10-29 16:00:00 23.9 4 Sudeste 10 Nordeste 0 956.9 -- 36
2020-10-29 15:00:00 24.3 3 Norte 9 Norte 0 957.3 -- 36
2020-10-29 14:00:00 23.2 4 Sudeste 10 Norte 0 957.7 -- 38
2020-10-29 13:00:00 21.6 4 Nordeste 8 Nordeste 0 958.4 -- 43
2020-10-29 12:00:00 20.2 4 Nordeste 7 Nordeste 0 958.9 -- 50
2020-10-29 11:00:00 18.2 4 Nordeste 8 Este 0 959.1 -- 56
2020-10-29 10:00:00 15.9 4 Este 8 Sudeste 0 958.8 -- 63
2020-10-29 09:00:00 12.9 3 Noroeste 6 Oeste 0 958 -- 73
2020-10-29 08:00:00 11.3 0 Calma 8 Este 0 957.6 -- 79
2020-10-29 07:00:00 13.2 0 Calma 11 Sur 0 957.2 -- 70
2020-10-29 06:00:00 13.4 3 Sudeste 13 Sur 0 957.1 -- 69
2020-10-29 05:00:00 13.1 0 Calma 10 Sur 0 957.1 -- 72
2020-10-29 04:00:00 15 8 Sur 14 Sudeste 0 956.4 -- 64
2020-10-29 03:00:00 15.6 8 Sudeste 12 Sur 0 956.9 -- 63
2020-10-29 02:00:00 15.2 7 Sur 12 Sur 0 957 -- 62
2020-10-29 01:00:00 15 8 Sudeste 14 Sudeste 0 957 -- 61
2020-10-29 00:00:00 14.1 3 Sudeste 7 Norte 0 957.1 -- 66
2020-10-28 23:00:00 16 7 Sur 13 Sur 0 957.2 -- 58
2020-10-28 22:00:00 14.7 4 Sur 7 Sur 0 957.2 -- 66
2020-10-28 21:00:00 16 5 Sur 9 Sur 0 956.6 -- 62
2020-10-28 20:00:00 15.4 4 Sudoeste 8 Sur 0 956.4 -- 62
2020-10-28 19:00:00 15.9 5 Sudoeste 9 Sur 0 955.7 -- 56
2020-10-28 18:00:00 16.9 3 Sur 12 Sudoeste 0 955.4 -- 53
2020-10-28 17:00:00 18.4 6 Noroeste 12 Norte 0 955.3 -- 47
2020-10-28 16:00:00 18.9 3 Norte 9 Norte 0 955.1 -- 45
2020-10-28 15:00:00 19.2 3 Norte 11 Norte 0 955.2 -- 45
2020-10-28 14:00:00 18.6 7 Norte 12 Norte 0 955.4 -- 46
2020-10-28 13:00:00 17.3 4 Nordeste 11 Nordeste 0 955.9 -- 51
2020-10-28 12:00:00 15.8 5 Este 12 Este 0 956.3 -- 52
2020-10-28 11:00:00 14.5 4 Este 13 Este 0 956.2 -- 59
2020-10-28 10:00:00 14.1 9 Este 19 Este 0 955.9 -- 53
2020-10-28 09:00:00 11.2 5 Sudeste 9 Sudeste 0 955.8 -- 66
2020-10-28 08:00:00 8.7 2 Este 6 Noroeste 0 954.7 -- 83
2020-10-28 07:00:00 8.7 2 Este 7 Sudeste 0 954.4 -- 80
2020-10-28 06:00:00 8.5 4 Sur 7 Sur 0 954.1 -- 81
2020-10-28 05:00:00 8.4 3 Sudoeste 7 Oeste 0 954 -- 79
2020-10-28 04:00:00 8.5 2 Sur 5 Sudoeste 0 954.1 -- 78
2020-10-28 03:00:00 8.7 3 Sudoeste 7 Sudoeste 0 954 -- 77
2020-10-28 02:00:00 9.7 5 Sudoeste 9 Sudoeste 0 953.9 -- 72
2020-10-28 01:00:00 10.2 8 Sudoeste 14 Sudoeste 0 954.1 -- 67
2020-10-28 00:00:00 10.1 10 Sur 12 Sur 0 954 -- 66